Voganville, Pennsylvania
Current Conditions -  °F | °C
As of 2:53 AM on Sunday 26 Oct 2014 (Local Time) from KLNS Reporting Station
Broken Clouds Broken Clouds  
Wind Chill: 56°   Ceiling: 7000
Heat Index: 56°   Visibility: 10mi
Dew Point: 48°   Wind: 8mph
Humidity: 75%   Direction: 260°W
Pressure: 29.63"   Gusts: NA
Location:  40.1811°N, 76.176°W
Report Text: KLNS 260653Z AUTO 26007KT 10SM BKN070 BKN090 13/09 A2963 RMK AO2 SLP033 T01330089
Loading
Personal Weather Stations






























Interactive Weather Map
Tropical Storm Tracking
New forecast layout! Learn more

10-Day Weather Forecast

Advertisements
Track Severe Weather on mobile